createdAt,value
2017-09-14T00:00:04.128Z,22.36
2017-09-14T00:00:44.565Z,22.31
2017-09-14T00:01:25.014Z,22.33
2017-09-14T00:02:05.461Z,22.33
2017-09-14T00:02:45.908Z,22.34
2017-09-14T00:03:26.357Z,22.26
2017-09-14T00:04:06.805Z,22.28
2017-09-14T00:04:47.256Z,22.33
2017-09-14T00:05:27.695Z,22.28
2017-09-14T00:06:08.143Z,22.28
2017-09-14T00:06:48.590Z,22.31
2017-09-14T00:07:29.039Z,22.23
2017-09-14T00:08:09.481Z,22.26
2017-09-14T00:08:49.926Z,22.3
2017-09-14T00:09:30.366Z,22.3
2017-09-14T00:10:10.819Z,22.26
2017-09-14T00:10:51.261Z,22.23
2017-09-14T00:11:31.706Z,22.31
2017-09-14T00:12:12.166Z,22.28
2017-09-14T00:12:52.612Z,22.31
2017-09-14T00:13:33.059Z,22.25
2017-09-14T00:14:13.504Z,22.28
2017-09-14T00:14:53.950Z,22.3
2017-09-14T00:15:34.390Z,22.25
2017-09-14T00:16:14.837Z,22.28
2017-09-14T00:16:55.290Z,22.23
2017-09-14T00:17:35.732Z,22.23
2017-09-14T00:18:16.176Z,22.26
2017-09-14T00:18:56.617Z,22.3
2017-09-14T00:19:37.059Z,22.25
2017-09-14T00:20:17.507Z,22.28
2017-09-14T00:20:57.954Z,22.26
2017-09-14T00:21:38.404Z,22.28
2017-09-14T00:22:18.839Z,22.26
2017-09-14T00:22:59.290Z,22.25
2017-09-14T00:23:39.739Z,22.28
2017-09-14T00:24:20.188Z,22.31
2017-09-14T00:25:00.638Z,22.3
2017-09-14T00:25:41.092Z,22.3
2017-09-14T00:26:21.539Z,22.23
2017-09-14T00:27:01.990Z,22.3
2017-09-14T00:27:42.444Z,22.26
2017-09-14T00:28:22.898Z,22.36
2017-09-14T00:29:03.350Z,22.36
2017-09-14T00:29:43.803Z,22.28
2017-09-14T00:30:24.256Z,22.25
2017-09-14T00:31:04.694Z,22.3
2017-09-14T00:31:45.142Z,22.25
2017-09-14T00:32:25.592Z,22.33
2017-09-14T00:33:06.041Z,22.23
2017-09-14T00:33:46.485Z,22.37
2017-09-14T00:34:26.926Z,22.28
2017-09-14T00:35:07.377Z,22.28
2017-09-14T00:35:47.822Z,22.3
2017-09-14T00:36:28.269Z,22.28
2017-09-14T00:37:08.721Z,22.23
2017-09-14T00:37:49.176Z,22.22
2017-09-14T00:38:29.623Z,22.3
2017-09-14T00:39:10.072Z,22.34
2017-09-14T00:39:50.519Z,22.23
2017-09-14T00:40:30.961Z,22.31
2017-09-14T00:41:11.415Z,22.3
2017-09-14T00:41:51.860Z,22.26
2017-09-14T00:42:32.308Z,22.28
2017-09-14T00:43:12.756Z,22.33
2017-09-14T00:43:53.200Z,22.21
2017-09-14T00:44:33.647Z,22.28
2017-09-14T00:45:14.097Z,22.26
2017-09-14T00:45:54.545Z,22.36
2017-09-14T00:46:34.992Z,22.33
2017-09-14T00:47:15.439Z,22.28
2017-09-14T00:47:55.891Z,22.28
2017-09-14T00:48:36.342Z,22.33
2017-09-14T00:49:16.789Z,22.25
2017-09-14T00:49:57.240Z,22.3
2017-09-14T00:50:37.688Z,22.3
2017-09-14T00:51:18.137Z,22.31
2017-09-14T00:51:58.579Z,22.3
2017-09-14T00:52:39.028Z,22.31
2017-09-14T00:53:19.459Z,22.26
2017-09-14T00:53:59.900Z,22.25
2017-09-14T00:54:40.347Z,22.26
2017-09-14T00:55:20.796Z,22.28
2017-09-14T00:56:01.244Z,22.22
2017-09-14T00:56:41.694Z,22.23
2017-09-14T00:57:22.151Z,22.25
2017-09-14T00:58:02.603Z,22.26
2017-09-14T00:58:43.042Z,22.3
2017-09-14T00:59:23.485Z,22.26
2017-09-14T01:00:03.929Z,22.25
2017-09-14T01:00:44.378Z,22.31
2017-09-14T01:01:24.823Z,22.25
2017-09-14T01:02:05.273Z,22.28
2017-09-14T01:02:45.728Z,22.28
2017-09-14T01:03:26.178Z,22.28
2017-09-14T01:04:06.631Z,22.22
2017-09-14T01:04:47.071Z,22.25
2017-09-14T01:05:27.525Z,22.25
2017-09-14T01:06:07.955Z,22.28
2017-09-14T01:06:48.423Z,22.23
2017-09-14T01:07:28.849Z,22.18
2017-09-14T01:08:09.306Z,22.28
2017-09-14T01:08:49.754Z,22.16
2017-09-14T01:09:30.204Z,22.18
2017-09-14T01:10:10.648Z,22.18
2017-09-14T01:10:51.094Z,22.21
2017-09-14T01:11:31.543Z,22.23
2017-09-14T01:12:11.987Z,22.18
2017-09-14T01:12:52.428Z,22.16
2017-09-14T01:13:32.865Z,22.23
2017-09-14T01:14:13.316Z,22.18
2017-09-14T01:14:53.765Z,22.19
2017-09-14T01:15:34.227Z,22.19
2017-09-14T01:16:14.670Z,22.18
2017-09-14T01:16:55.109Z,22.28
2017-09-14T01:17:35.557Z,22.15
2017-09-14T01:18:16.002Z,22.19
2017-09-14T02:25:05.102Z,22.18
2017-09-14T02:25:45.547Z,22.19
2017-09-14T02:26:25.987Z,22.22
2017-09-14T02:27:06.437Z,22.18
2017-09-14T02:27:46.887Z,22.23
2017-09-14T02:28:27.326Z,22.26
2017-09-14T02:29:07.780Z,22.21
2017-09-14T02:29:48.225Z,22.16
2017-09-14T02:30:28.662Z,22.22
2017-09-14T02:31:09.135Z,22.23
2017-09-14T02:31:49.566Z,22.22
2017-09-14T02:32:30.004Z,22.23
2017-09-14T02:33:10.446Z,22.22
2017-09-14T02:33:50.892Z,22.15
2017-09-14T02:34:31.333Z,22.25
2017-09-14T02:35:11.777Z,22.22
2017-09-14T02:35:52.226Z,22.18
2017-09-14T02:36:32.672Z,22.21
2017-09-14T02:37:13.123Z,22.18
2017-09-14T02:37:53.575Z,22.21
2017-09-14T02:38:34.018Z,22.22
2017-09-14T02:39:14.466Z,22.18
2017-09-14T02:39:54.928Z,22.23
2017-09-14T02:40:35.369Z,22.21
2017-09-14T02:41:15.809Z,22.21
2017-09-14T02:41:56.250Z,22.23
2017-09-14T02:42:36.701Z,22.21
2017-09-14T02:43:17.146Z,22.15
2017-09-14T02:43:57.591Z,22.16
2017-09-14T02:44:38.039Z,22.25
2017-09-14T02:45:18.486Z,22.22
2017-09-14T02:45:58.935Z,22.26
2017-09-14T02:46:39.377Z,22.25
2017-09-14T02:47:19.827Z,22.23
2017-09-14T02:48:00.271Z,22.21
2017-09-14T02:48:40.727Z,22.23
2017-09-14T02:49:21.172Z,22.21
2017-09-14T02:50:01.621Z,22.25
2017-09-14T02:50:42.068Z,22.26
2017-09-14T02:51:22.525Z,22.18
2017-09-14T02:52:02.985Z,22.23
2017-09-14T02:52:43.427Z,22.19
2017-09-14T02:53:23.885Z,22.23
2017-09-14T02:54:04.312Z,22.26
2017-09-14T02:54:44.760Z,22.21
2017-09-14T02:55:25.208Z,22.23
2017-09-14T02:56:05.664Z,22.25
2017-09-14T02:56:46.104Z,22.21
2017-09-14T02:57:26.549Z,22.23
2017-09-14T02:58:06.993Z,22.23
2017-09-14T02:58:47.437Z,22.23
2017-09-14T02:59:27.887Z,22.23
2017-09-14T03:00:08.329Z,22.16
2017-09-14T03:00:48.778Z,22.23
2017-09-14T03:01:29.218Z,22.22
2017-09-14T03:02:09.666Z,22.22
2017-09-14T03:02:50.113Z,22.26
2017-09-14T03:03:30.564Z,22.22
2017-09-14T03:04:11.012Z,22.22
2017-09-14T03:04:51.450Z,22.23
2017-09-14T03:05:31.898Z,22.22
2017-09-14T03:06:12.339Z,22.19
2017-09-14T03:06:52.790Z,22.22
2017-09-14T03:07:33.240Z,22.22
2017-09-14T03:08:13.691Z,22.18
2017-09-14T03:08:54.139Z,22.25
2017-09-14T03:09:34.582Z,22.19
2017-09-14T03:10:15.029Z,22.16
2017-09-14T03:10:55.481Z,22.19
2017-09-14T03:11:35.942Z,22.23
2017-09-14T03:12:16.391Z,22.19
2017-09-14T03:12:56.839Z,22.22
2017-09-14T03:13:37.275Z,22.18
2017-09-14T03:14:17.722Z,22.22
2017-09-14T03:14:58.173Z,22.19
2017-09-14T03:15:38.620Z,22.16
2017-09-14T03:16:19.068Z,22.23
2017-09-14T03:16:59.522Z,22.25
2017-09-14T03:17:39.968Z,22.22
2017-09-14T03:18:20.421Z,22.18
2017-09-14T03:19:00.864Z,22.16
2017-09-14T03:19:41.309Z,22.26
2017-09-14T03:20:21.757Z,22.26
2017-09-14T03:21:02.197Z,22.22
2017-09-14T03:21:42.646Z,22.15
2017-09-14T03:22:23.098Z,22.21
2017-09-14T03:23:03.561Z,22.22
2017-09-14T03:23:44.003Z,22.19
2017-09-14T03:24:24.447Z,22.16
2017-09-14T03:25:04.894Z,22.23
2017-09-14T03:25:45.340Z,22.22
2017-09-14T03:26:25.790Z,22.22
2017-09-14T03:27:06.240Z,22.21
2017-09-14T03:27:46.689Z,22.16
2017-09-14T03:28:27.140Z,22.26
2017-09-14T03:29:07.582Z,22.21
2017-09-14T03:29:48.030Z,22.15
2017-09-14T03:30:28.476Z,22.21
2017-09-14T03:31:08.932Z,22.18
2017-09-14T03:31:49.378Z,22.22
2017-09-14T03:32:29.818Z,22.14
2017-09-14T03:33:10.267Z,22.18
2017-09-14T03:33:50.726Z,22.16
2017-09-14T03:34:31.170Z,22.25
2017-09-14T03:35:11.642Z,22.18
2017-09-14T03:35:52.081Z,22.25
2017-09-14T03:36:32.524Z,22.18
2017-09-14T03:37:12.973Z,22.12
2017-09-14T03:37:53.406Z,22.18
2017-09-14T03:38:33.860Z,22.15
2017-09-14T03:39:14.304Z,22.14
2017-09-14T03:39:54.754Z,22.15
2017-09-14T03:40:35.206Z,22.22
2017-09-14T03:41:15.648Z,22.12
2017-09-14T03:41:56.097Z,22.15
2017-09-14T03:42:36.543Z,22.14
2017-09-14T03:43:16.993Z,22.12
2017-09-14T03:43:57.445Z,22.19
2017-09-14T03:44:37.892Z,22.18
2017-09-14T03:45:18.340Z,22.15
2017-09-14T03:45:58.785Z,22.16
2017-09-14T03:46:39.228Z,22.08
2017-09-14T03:47:19.661Z,22.15
2017-09-14T03:48:00.104Z,22.08
2017-09-14T03:48:40.553Z,22.15
2017-09-14T03:49:20.997Z,22.18
2017-09-14T03:50:01.446Z,22.03
2017-09-14T03:50:41.905Z,22.06
2017-09-14T03:51:22.347Z,22.16
2017-09-14T03:52:02.789Z,22.14
2017-09-14T03:52:43.229Z,22.14
2017-09-14T03:53:23.676Z,22
2017-09-14T03:54:04.123Z,22.07
2017-09-14T03:54:44.583Z,22.07
2017-09-14T03:55:25.021Z,22.18
2017-09-14T03:56:05.465Z,22.12
2017-09-14T03:56:45.924Z,22.18
2017-09-14T03:57:26.378Z,22.07
2017-09-14T03:58:06.826Z,22.18
2017-09-14T03:58:47.264Z,22.16
2017-09-14T03:59:27.713Z,22.12
2017-09-14T04:00:08.164Z,22.16
2017-09-14T04:00:48.613Z,22.14
2017-09-14T04:01:29.057Z,22.19
2017-09-14T04:02:09.530Z,22.18
2017-09-14T04:02:49.976Z,22.22
2017-09-14T04:03:30.414Z,22.16
2017-09-14T04:04:10.859Z,22.15
2017-09-14T04:04:51.299Z,22.19
2017-09-14T04:05:31.744Z,22.14
2017-09-14T04:06:12.196Z,22.19
2017-09-14T04:06:52.644Z,22.16
2017-09-14T04:07:33.086Z,22.19
2017-09-14T04:08:13.534Z,22.16
2017-09-14T04:08:53.988Z,22.26
2017-09-14T04:09:34.431Z,22.23
2017-09-14T04:10:14.867Z,22.28
2017-09-14T04:10:55.303Z,22.22
2017-09-14T04:11:35.756Z,22.22
2017-09-14T04:12:16.210Z,22.26
2017-09-14T04:12:56.656Z,22.31
2017-09-14T04:13:37.098Z,22.28
2017-09-14T04:14:17.546Z,22.25
2017-09-14T04:14:57.997Z,22.38
2017-09-14T04:15:38.442Z,22.37
2017-09-14T04:16:18.895Z,22.34
2017-09-14T04:16:59.328Z,22.31
2017-09-14T04:17:39.779Z,22.34
2017-09-14T04:18:20.223Z,22.38
2017-09-14T04:19:00.664Z,22.4
2017-09-14T04:19:41.113Z,22.43
2017-09-14T04:20:21.562Z,22.46
2017-09-14T04:21:02.013Z,22.43
2017-09-14T04:21:42.439Z,22.44
2017-09-14T04:22:22.896Z,22.41
2017-09-14T04:23:03.341Z,22.41
2017-09-14T04:23:43.782Z,22.38
2017-09-14T04:24:24.232Z,22.51
2017-09-14T04:25:04.681Z,22.51
2017-09-14T04:25:45.129Z,22.4
2017-09-14T04:26:25.573Z,22.47
2017-09-14T04:27:06.026Z,22.51
2017-09-14T04:27:46.472Z,22.44
2017-09-14T04:28:26.920Z,22.49
2017-09-14T04:29:07.369Z,22.56
2017-09-14T04:29:47.806Z,22.53
2017-09-14T04:30:28.254Z,22.55
2017-09-14T04:31:08.714Z,22.53
2017-09-14T04:31:49.162Z,22.56
2017-09-14T04:32:29.619Z,22.55
2017-09-14T04:33:10.074Z,22.51
2017-09-14T04:33:50.524Z,22.55
2017-09-14T04:35:48.189Z,22.52
2017-09-14T04:36:28.628Z,22.47
2017-09-14T04:37:09.063Z,22.47
2017-09-14T04:37:49.514Z,22.49
2017-09-14T04:38:29.978Z,22.55
2017-09-14T04:39:10.430Z,22.52
2017-09-14T04:39:50.877Z,22.47
2017-09-14T04:40:31.327Z,22.56
2017-09-14T04:41:11.791Z,22.51
2017-09-14T04:41:52.220Z,22.49
2017-09-14T04:42:32.666Z,22.58
2017-09-14T04:43:13.108Z,22.46
2017-09-14T04:43:53.559Z,22.51
2017-09-14T04:44:34.005Z,22.55
2017-09-14T04:45:14.457Z,22.56
2017-09-14T04:45:54.921Z,22.47
2017-09-14T04:46:35.834Z,22.43
2017-09-14T04:47:16.281Z,22.46
2017-09-14T04:47:56.711Z,22.55
2017-09-14T04:48:37.158Z,22.51
2017-09-14T04:49:17.603Z,22.41
2017-09-14T04:49:58.061Z,22.53
2017-09-14T04:50:38.512Z,22.44
2017-09-14T04:51:18.957Z,22.46
2017-09-14T04:51:59.382Z,22.56
2017-09-14T04:52:39.839Z,22.44
2017-09-14T04:53:20.274Z,22.49
2017-09-14T04:54:00.712Z,22.56
2017-09-14T04:54:41.183Z,22.56
2017-09-14T04:55:21.618Z,22.55
2017-09-14T04:56:02.065Z,22.56
2017-09-14T04:56:42.512Z,22.44
2017-09-14T04:57:22.960Z,22.58
2017-09-14T04:58:03.396Z,22.46
2017-09-14T04:58:43.835Z,22.56
2017-09-14T04:59:24.295Z,22.52
2017-09-14T05:00:04.733Z,22.53
2017-09-14T05:00:45.177Z,22.51
2017-09-14T05:01:25.621Z,22.47
2017-09-14T05:02:06.070Z,22.58
2017-09-14T05:02:46.530Z,22.56
2017-09-14T05:03:26.970Z,22.51
2017-09-14T05:04:07.421Z,22.58
2017-09-14T05:04:47.871Z,22.46
2017-09-14T05:05:28.306Z,22.52
2017-09-14T05:06:08.753Z,22.58
2017-09-14T05:06:49.186Z,22.52
2017-09-14T05:07:29.640Z,22.49
2017-09-14T05:08:10.086Z,22.59
2017-09-14T05:08:50.549Z,22.55
2017-09-14T05:09:31.007Z,22.59
2017-09-14T05:10:11.417Z,22.53
2017-09-14T05:10:51.877Z,22.51
2017-09-14T05:11:32.318Z,22.55
2017-09-14T05:12:12.762Z,22.49
2017-09-14T05:12:53.210Z,22.49
2017-09-14T05:13:33.660Z,22.59
2017-09-14T05:14:14.115Z,22.46
2017-09-14T05:14:55.104Z,22.55
2017-09-14T05:15:35.551Z,22.51
2017-09-14T05:16:16.001Z,22.46
2017-09-14T05:16:56.436Z,22.47
2017-09-14T05:18:54.107Z,22.52
2017-09-14T05:19:34.544Z,22.46
2017-09-14T05:20:14.990Z,22.53
2017-09-14T05:20:55.439Z,22.53
2017-09-14T05:21:35.888Z,22.51
2017-09-14T05:22:16.336Z,22.51
2017-09-14T05:22:56.784Z,22.51
2017-09-14T05:23:37.231Z,22.53
2017-09-14T05:24:17.682Z,22.51
2017-09-14T05:24:58.122Z,22.51
2017-09-14T05:25:38.569Z,22.52
2017-09-14T05:26:19.016Z,22.52
2017-09-14T05:26:59.474Z,22.53
2017-09-14T05:27:39.919Z,22.49
2017-09-14T05:28:20.386Z,22.55
2017-09-14T05:29:00.814Z,22.56
2017-09-14T05:29:41.284Z,22.51
2017-09-14T05:30:21.732Z,22.44
2017-09-14T05:31:02.178Z,22.55
2017-09-14T05:31:42.621Z,22.55
2017-09-14T05:32:23.076Z,22.51
2017-09-14T05:33:03.523Z,22.53
2017-09-14T05:33:43.980Z,22.52
2017-09-14T05:34:24.421Z,22.47
2017-09-14T05:35:04.867Z,22.56
2017-09-14T05:35:45.321Z,22.59
2017-09-14T05:36:25.741Z,22.58
2017-09-14T05:37:06.186Z,22.51
2017-09-14T05:37:46.634Z,22.51
2017-09-14T05:38:27.095Z,22.53
2017-09-14T05:39:07.522Z,22.46
2017-09-14T05:39:47.972Z,22.53
2017-09-14T05:40:28.418Z,22.47
2017-09-14T05:41:08.867Z,22.53
2017-09-14T05:41:49.317Z,22.51
2017-09-14T05:42:29.774Z,22.56
2017-09-14T05:43:10.217Z,22.47
2017-09-14T05:43:50.664Z,22.52
2017-09-14T05:44:31.112Z,22.47
2017-09-14T05:45:11.573Z,22.44
2017-09-14T05:45:52.020Z,22.52
2017-09-14T05:46:32.466Z,22.44
2017-09-14T05:47:12.913Z,22.46
2017-09-14T05:47:53.371Z,22.4
2017-09-14T05:48:33.842Z,22.37
2017-09-14T05:49:14.284Z,22.46
2017-09-14T05:49:54.728Z,22.4
2017-09-14T05:50:35.176Z,22.52
2017-09-14T05:51:15.612Z,22.53
2017-09-14T05:51:56.041Z,22.4
2017-09-14T05:52:36.489Z,22.38
2017-09-14T05:53:16.938Z,22.52
2017-09-14T05:53:57.385Z,22.47
2017-09-14T05:54:37.833Z,22.46
2017-09-14T05:55:18.309Z,22.43
2017-09-14T05:55:58.755Z,22.37
2017-09-14T05:56:39.205Z,22.49
2017-09-14T05:57:19.660Z,22.41
2017-09-14T05:58:00.117Z,22.51
2017-09-14T05:58:40.550Z,22.36
2017-09-14T05:59:20.991Z,22.51
2017-09-14T06:00:01.444Z,22.52
2017-09-14T06:00:41.890Z,22.4
2017-09-14T06:01:22.375Z,22.4
2017-09-14T06:02:02.826Z,22.43
2017-09-14T06:02:43.280Z,22.41
2017-09-14T06:03:23.724Z,22.44
2017-09-14T06:04:04.169Z,22.43
2017-09-14T06:04:44.620Z,22.55
2017-09-14T06:05:25.069Z,22.43
2017-09-14T06:06:05.514Z,22.51
2017-09-14T06:06:45.958Z,22.55
2017-09-14T06:07:26.412Z,22.4
2017-09-14T06:08:06.860Z,22.53
2017-09-14T06:08:47.309Z,22.49
2017-09-14T06:09:27.757Z,22.51
2017-09-14T06:10:08.205Z,22.43
2017-09-14T06:10:48.653Z,22.52
2017-09-14T06:11:29.101Z,22.41
2017-09-14T06:12:09.550Z,22.4
2017-09-14T06:12:49.999Z,22.53
2017-09-14T06:13:30.440Z,22.4
2017-09-14T06:14:10.931Z,22.49
2017-09-14T06:14:51.377Z,22.47
2017-09-14T06:15:31.909Z,22.51
2017-09-14T06:16:12.478Z,22.46
2017-09-14T06:16:52.925Z,22.4
2017-09-14T06:17:33.408Z,22.53
2017-09-14T06:18:13.828Z,22.46
2017-09-14T06:18:54.269Z,22.46
2017-09-14T06:19:34.736Z,22.43
2017-09-14T06:20:15.173Z,22.52
2017-09-14T06:20:55.617Z,22.46
2017-09-14T06:21:36.075Z,22.52
2017-09-14T06:23:23.571Z,22.49
2017-09-14T06:24:04.018Z,22.41
2017-09-14T06:24:44.507Z,22.44
2017-09-14T06:25:24.968Z,22.44
2017-09-14T06:26:05.459Z,22.4
2017-09-14T06:26:45.933Z,22.52
2017-09-14T06:27:26.381Z,22.51
2017-09-14T06:28:06.839Z,22.53
2017-09-14T06:28:47.284Z,22.53
2017-09-14T06:29:27.731Z,22.41
2017-09-14T06:30:08.180Z,22.52
2017-09-14T06:30:48.627Z,22.52
2017-09-14T06:31:29.074Z,22.55
2017-09-14T06:32:09.517Z,22.53
2017-09-14T06:32:49.975Z,22.4
2017-09-14T06:33:30.408Z,22.51
2017-09-14T06:34:10.848Z,22.51
2017-09-14T06:34:51.299Z,22.49
2017-09-14T06:35:31.748Z,22.47
2017-09-14T06:36:12.178Z,22.51
2017-09-14T06:36:52.628Z,22.49
2017-09-14T06:37:33.077Z,22.55
2017-09-14T06:38:13.533Z,22.47
2017-09-14T06:38:53.976Z,22.51
2017-09-14T06:39:34.422Z,22.55
2017-09-14T06:40:14.865Z,22.53
2017-09-14T06:40:55.310Z,22.46
2017-09-14T06:41:35.757Z,22.51
2017-09-14T06:42:16.189Z,22.46
2017-09-14T06:42:56.639Z,22.46
2017-09-14T06:43:37.087Z,22.52
2017-09-14T06:44:17.535Z,22.47
2017-09-14T06:44:57.979Z,22.46
2017-09-14T06:45:38.428Z,22.51
2017-09-14T06:46:18.909Z,22.52
2017-09-14T06:46:59.355Z,22.52
2017-09-14T06:47:39.797Z,22.52
2017-09-14T06:48:20.246Z,22.41
2017-09-14T06:49:00.698Z,22.47
2017-09-14T06:49:41.140Z,22.58
2017-09-14T06:50:21.589Z,22.51
2017-09-14T06:51:02.028Z,22.47
2017-09-14T06:51:42.469Z,22.55
2017-09-14T06:52:22.918Z,22.47
2017-09-14T06:53:03.376Z,22.49
2017-09-14T06:53:43.817Z,22.56
2017-09-14T06:54:24.255Z,22.52
2017-09-14T06:55:04.726Z,22.56
2017-09-14T06:55:45.178Z,22.56
2017-09-14T06:56:25.622Z,22.47
2017-09-14T06:57:06.073Z,22.53
2017-09-14T06:57:46.521Z,22.55
2017-09-14T06:58:26.966Z,22.56
2017-09-14T06:59:07.434Z,22.58
2017-09-14T06:59:47.856Z,22.49
2017-09-14T07:00:28.300Z,22.51
2017-09-14T07:01:08.730Z,22.56
2017-09-14T07:01:49.175Z,22.53
2017-09-14T07:02:29.620Z,22.56
2017-09-14T07:03:10.069Z,22.46
2017-09-14T07:03:50.505Z,22.51
2017-09-14T07:04:30.956Z,22.44
2017-09-14T07:05:11.403Z,22.55
2017-09-14T07:05:51.845Z,22.44
2017-09-14T07:06:32.289Z,22.44
2017-09-14T07:07:12.739Z,22.59
2017-09-14T07:07:53.182Z,22.43
2017-09-14T07:08:33.622Z,22.41
2017-09-14T07:09:14.070Z,22.46
2017-09-14T07:09:54.514Z,22.47
2017-09-14T07:10:34.950Z,22.51
2017-09-14T07:11:15.399Z,22.43
2017-09-14T07:11:55.835Z,22.51
2017-09-14T07:12:36.275Z,22.51
2017-09-14T07:13:16.741Z,22.59
2017-09-14T07:13:57.192Z,22.59
2017-09-14T07:14:37.614Z,22.46
2017-09-14T07:15:18.084Z,22.52
2017-09-14T07:15:58.507Z,22.55
2017-09-14T07:16:38.954Z,22.53
2017-09-14T07:17:19.393Z,22.53
2017-09-14T07:17:59.840Z,22.47
2017-09-14T07:18:40.300Z,22.49
2017-09-14T07:19:20.728Z,22.56
2017-09-14T07:20:01.178Z,22.49
2017-09-14T07:20:41.644Z,22.51
2017-09-14T07:21:22.086Z,22.49
2017-09-14T07:22:02.537Z,22.51
2017-09-14T07:22:42.989Z,22.52
2017-09-14T07:23:23.431Z,22.53
2017-09-14T07:24:03.876Z,22.46
2017-09-14T07:24:44.305Z,22.53
2017-09-14T07:25:24.931Z,22.47
2017-09-14T07:26:05.418Z,22.43
2017-09-14T07:26:45.874Z,22.47
2017-09-14T07:27:26.324Z,22.53
2017-09-14T07:28:06.772Z,22.49
2017-09-14T07:28:47.219Z,22.55
2017-09-14T07:29:27.661Z,22.59
2017-09-14T07:30:08.108Z,22.55
2017-09-14T07:30:48.558Z,22.53
2017-09-14T07:31:29.006Z,22.46
2017-09-14T07:32:09.463Z,22.47
2017-09-14T07:32:49.909Z,22.53
2017-09-14T07:33:30.358Z,22.52
2017-09-14T07:34:10.801Z,22.51
2017-09-14T07:34:51.258Z,22.55
2017-09-14T07:35:31.688Z,22.59
2017-09-14T07:36:12.132Z,22.44
2017-09-14T07:36:52.600Z,22.59
2017-09-14T07:37:33.048Z,22.53
2017-09-14T07:38:13.496Z,22.53
2017-09-14T07:38:53.946Z,22.53
2017-09-14T07:39:34.393Z,22.52
2017-09-14T07:40:14.837Z,22.51
2017-09-14T07:40:55.286Z,22.51
2017-09-14T07:41:35.727Z,22.53
2017-09-14T07:42:16.167Z,22.49
2017-09-14T07:42:56.613Z,22.55
2017-09-14T07:43:37.065Z,22.55
2017-09-14T07:44:17.519Z,22.49
2017-09-14T07:44:57.980Z,22.52
2017-09-14T07:45:38.428Z,22.56
2017-09-14T07:46:18.876Z,22.49
2017-09-14T07:46:59.328Z,22.43
2017-09-14T07:47:39.777Z,22.58
2017-09-14T07:48:20.223Z,22.52
2017-09-14T07:49:00.669Z,22.49
2017-09-14T07:49:41.119Z,22.44
2017-09-14T07:50:21.592Z,22.49
2017-09-14T07:51:02.017Z,22.49
2017-09-14T07:51:42.452Z,22.43
2017-09-14T07:52:22.903Z,22.43
2017-09-14T07:53:03.343Z,22.41
2017-09-14T07:53:43.796Z,22.56
2017-09-14T07:54:24.242Z,22.51
2017-09-14T07:55:04.685Z,22.46
2017-09-14T07:55:45.136Z,22.49
2017-09-14T07:56:25.586Z,22.51
2017-09-14T07:57:06.034Z,22.56
2017-09-14T07:57:46.486Z,22.55
2017-09-14T07:58:26.921Z,22.49
2017-09-14T07:59:07.367Z,22.52
2017-09-14T07:59:47.820Z,22.47
2017-09-14T08:00:28.288Z,22.49
2017-09-14T08:01:08.740Z,22.53
2017-09-14T08:01:49.197Z,22.51
2017-09-14T08:02:29.633Z,22.47
2017-09-14T08:03:10.090Z,22.41
2017-09-14T08:03:50.533Z,22.51
2017-09-14T08:04:30.982Z,22.55
2017-09-14T08:05:11.432Z,22.51
2017-09-14T08:05:51.879Z,22.52
2017-09-14T08:06:32.327Z,22.47
2017-09-14T08:07:12.778Z,22.49
2017-09-14T08:07:53.231Z,22.49
2017-09-14T08:08:33.679Z,22.55
2017-09-14T08:09:14.123Z,22.41
2017-09-14T08:09:54.569Z,22.43
2017-09-14T08:10:35.000Z,22.53
2017-09-14T08:11:15.446Z,22.51
2017-09-14T08:11:55.881Z,22.53
2017-09-14T08:12:36.332Z,22.38
2017-09-14T08:13:16.780Z,22.46
2017-09-14T08:13:57.228Z,22.38
2017-09-14T08:14:37.696Z,22.43
2017-09-14T08:15:18.126Z,22.38
2017-09-14T08:15:58.571Z,22.47
2017-09-14T08:16:39.024Z,22.43
2017-09-14T08:17:19.472Z,22.46
2017-09-14T08:17:59.929Z,22.4
2017-09-14T08:18:40.374Z,22.41
2017-09-14T08:19:20.838Z,22.43
2017-09-14T08:20:01.302Z,22.44
2017-09-14T08:20:41.747Z,22.41
2017-09-14T08:21:22.218Z,22.41
2017-09-14T08:22:02.648Z,22.36
2017-09-14T08:22:43.093Z,22.51
2017-09-14T08:23:23.549Z,22.4
2017-09-14T08:24:03.992Z,22.47
2017-09-14T08:24:44.457Z,22.41
2017-09-14T08:25:24.893Z,22.4
2017-09-14T08:26:05.332Z,22.36
2017-09-14T08:26:45.802Z,22.38
2017-09-14T08:27:26.229Z,22.37
2017-09-14T08:28:06.667Z,22.33
2017-09-14T08:28:47.128Z,22.36
2017-09-14T08:29:27.573Z,22.43
2017-09-14T08:30:08.028Z,22.43
2017-09-14T08:30:48.477Z,22.4
2017-09-14T08:31:28.923Z,22.41
2017-09-14T08:32:09.372Z,22.4
2017-09-14T08:32:49.825Z,22.4
2017-09-14T08:33:30.270Z,22.43
2017-09-14T08:34:10.717Z,22.44
2017-09-14T08:34:51.164Z,22.4
2017-09-14T08:35:31.632Z,22.41
2017-09-14T08:36:12.055Z,22.34
2017-09-14T08:36:52.503Z,22.37
2017-09-14T08:37:32.952Z,22.43
2017-09-14T08:38:13.401Z,22.44
2017-09-14T08:38:53.859Z,22.38
2017-09-14T08:39:34.305Z,22.41
2017-09-14T08:40:14.749Z,22.38
2017-09-14T08:40:55.202Z,22.4
2017-09-14T08:41:35.648Z,22.41
2017-09-14T08:42:16.101Z,22.51
2017-09-14T08:42:56.545Z,22.41
2017-09-14T08:43:36.993Z,22.53
2017-09-14T08:44:17.441Z,22.47
2017-09-14T08:44:57.887Z,22.46
2017-09-14T08:45:38.338Z,22.51
2017-09-14T08:46:18.775Z,22.4
2017-09-14T08:46:59.228Z,22.52
2017-09-14T08:47:39.676Z,22.41
2017-09-14T08:48:20.133Z,22.52
2017-09-14T08:49:00.581Z,22.4
2017-09-14T08:49:41.027Z,22.49
2017-09-14T08:50:21.469Z,22.43
2017-09-14T08:51:01.912Z,22.52
2017-09-14T08:51:42.362Z,22.46
2017-09-14T08:52:22.808Z,22.52
2017-09-14T08:53:03.258Z,22.47
2017-09-14T08:53:43.698Z,22.51
2017-09-14T08:54:24.140Z,22.52
2017-09-14T08:55:04.592Z,22.55
2017-09-14T08:55:45.037Z,22.47
2017-09-14T08:56:25.486Z,22.47
2017-09-14T08:57:05.931Z,22.46
2017-09-14T08:57:46.377Z,22.49
2017-09-14T08:58:26.825Z,22.55
2017-09-14T08:59:07.277Z,22.52
2017-09-14T08:59:47.724Z,22.46
2017-09-14T09:00:28.165Z,22.55
2017-09-14T09:01:08.608Z,22.51
2017-09-14T09:01:49.057Z,22.53
2017-09-14T09:02:29.508Z,22.52
2017-09-14T09:03:09.974Z,22.49
2017-09-14T09:03:50.413Z,22.47
2017-09-14T09:04:30.857Z,22.56
2017-09-14T09:05:11.310Z,22.47
2017-09-14T09:05:51.757Z,22.53
2017-09-14T09:06:32.201Z,22.46
2017-09-14T09:07:12.654Z,22.3
2017-09-14T09:07:53.118Z,22.14
2017-09-14T09:08:33.550Z,22.08
2017-09-14T09:09:14.005Z,21.99
2017-09-14T09:09:54.451Z,21.91
2017-09-14T09:10:34.899Z,21.81
2017-09-14T09:11:15.352Z,21.84
2017-09-14T09:11:55.794Z,21.85
2017-09-14T09:12:36.242Z,21.91
2017-09-14T09:13:16.698Z,21.99
2017-09-14T09:13:57.145Z,22
2017-09-14T09:14:37.593Z,21.99
2017-09-14T09:15:18.046Z,22
2017-09-14T09:15:58.495Z,22.03
2017-09-14T09:16:38.945Z,22.08
2017-09-14T09:17:19.391Z,22.16
2017-09-14T09:17:59.840Z,22.15
2017-09-14T09:18:40.289Z,22.14
2017-09-14T09:19:20.738Z,22.14
2017-09-14T09:20:01.192Z,22.19
2017-09-14T09:20:41.644Z,22.25
2017-09-14T09:21:22.090Z,22.18
2017-09-14T09:22:02.541Z,22.28
2017-09-14T09:22:42.989Z,22.28
2017-09-14T09:23:23.439Z,22.3
2017-09-14T09:24:03.887Z,22.26
2017-09-14T09:24:44.335Z,22.36
2017-09-14T09:25:24.783Z,22.36
2017-09-14T09:26:05.230Z,22.4
2017-09-14T09:26:45.681Z,22.4
2017-09-14T09:27:26.128Z,22.46
2017-09-14T09:28:06.578Z,22.51
2017-09-14T09:28:47.025Z,22.46
2017-09-14T09:29:27.476Z,22.51
2017-09-14T09:30:07.922Z,22.51
2017-09-14T09:30:48.372Z,22.49
2017-09-14T09:31:28.818Z,22.46
2017-09-14T09:32:09.273Z,22.46
2017-09-14T09:32:49.718Z,22.46
2017-09-14T09:33:30.179Z,22.47
2017-09-14T09:34:10.636Z,22.47
2017-09-14T09:34:51.075Z,22.56
2017-09-14T09:35:31.524Z,22.61
2017-09-14T09:36:11.966Z,22.62
2017-09-14T09:36:52.415Z,22.62
2017-09-14T09:37:32.861Z,22.65
2017-09-14T09:38:13.304Z,22.61
2017-09-14T09:38:53.752Z,22.59
2017-09-14T09:39:34.199Z,22.68
2017-09-14T09:40:14.647Z,22.65
2017-09-14T09:40:55.094Z,22.62
2017-09-14T09:41:35.546Z,22.62
2017-09-14T09:42:15.995Z,22.62
2017-09-14T09:42:56.442Z,22.67
2017-09-14T09:43:36.897Z,22.58
2017-09-14T09:44:17.353Z,22.74
2017-09-14T09:44:57.795Z,22.62
2017-09-14T09:45:38.255Z,22.68
2017-09-14T09:46:18.701Z,22.59
2017-09-14T09:46:59.144Z,22.68
2017-09-14T09:47:39.608Z,22.58
2017-09-14T09:48:20.054Z,22.71
2017-09-14T09:49:00.494Z,22.7
2017-09-14T09:49:40.946Z,22.73
2017-09-14T09:50:21.389Z,22.7
2017-09-14T09:51:01.832Z,22.67
2017-09-14T09:51:42.301Z,22.62